createdAt,value
2023-04-27T00:00:29.560Z,7.40
2023-04-27T00:03:08.682Z,7.30
2023-04-27T00:05:42.126Z,7.30
2023-04-27T00:08:28.304Z,7.20
2023-04-27T00:11:14.883Z,7.20
2023-04-27T00:13:58.438Z,7.10
2023-04-27T00:16:46.494Z,7.10
2023-04-27T00:19:17.249Z,7.00
2023-04-27T00:22:00.652Z,7.00
2023-04-27T00:24:34.368Z,6.90
2023-04-27T00:27:13.900Z,6.90
2023-04-27T00:29:54.815Z,6.90
2023-04-27T00:32:29.835Z,6.80
2023-04-27T00:35:19.408Z,6.80
2023-04-27T00:37:59.661Z,6.80
2023-04-27T00:40:58.136Z,6.70
2023-04-27T00:44:08.206Z,6.70
2023-04-27T00:46:43.344Z,6.60
2023-04-27T00:49:27.077Z,6.60
2023-04-27T00:52:14.148Z,6.60
2023-04-27T00:55:02.347Z,6.50
2023-04-27T00:57:56.788Z,6.50
2023-04-27T01:00:43.676Z,6.50
2023-04-27T01:03:32.353Z,6.50
2023-04-27T01:06:03.494Z,6.40
2023-04-27T01:08:37.009Z,6.30
2023-04-27T01:11:43.218Z,6.30
2023-04-27T01:14:15.309Z,6.30
2023-04-27T01:17:14.474Z,6.30
2023-04-27T01:19:56.994Z,6.30
2023-04-27T01:22:39.405Z,6.20
2023-04-27T01:25:20.440Z,6.30
2023-04-27T01:27:55.745Z,6.30
2023-04-27T01:30:28.922Z,6.30
2023-04-27T01:33:15.193Z,6.30
2023-04-27T01:35:54.191Z,6.20
2023-04-27T01:38:29.704Z,6.20
2023-04-27T01:41:40.751Z,6.20
2023-04-27T01:44:13.690Z,6.20
2023-04-27T01:46:54.543Z,6.10
2023-04-27T01:49:37.689Z,6.10
2023-04-27T01:52:23.355Z,6.10
2023-04-27T01:55:11.757Z,6.00
2023-04-27T01:58:19.288Z,6.00
2023-04-27T02:00:53.911Z,6.00
2023-04-27T02:03:43.581Z,5.90
2023-04-27T02:06:34.270Z,5.90
2023-04-27T02:09:44.479Z,5.80
2023-04-27T02:12:21.198Z,5.80
2023-04-27T02:15:36.042Z,5.80
2023-04-27T02:18:14.671Z,5.80
2023-04-27T02:20:57.446Z,5.70
2023-04-27T02:23:38.204Z,5.70
2023-04-27T02:26:20.631Z,5.70
2023-04-27T02:29:00.311Z,5.70
2023-04-27T02:31:41.713Z,5.70
2023-04-27T02:34:20.435Z,5.70
2023-04-27T02:37:06.236Z,5.60
2023-04-27T02:39:37.498Z,5.60
2023-04-27T02:42:10.225Z,5.60
2023-04-27T02:45:05.265Z,5.60
2023-04-27T02:47:42.946Z,5.60
2023-04-27T02:50:43.054Z,5.60
2023-04-27T02:53:22.247Z,5.60
2023-04-27T02:55:53.235Z,5.60
2023-04-27T02:58:38.300Z,5.60
2023-04-27T03:01:44.183Z,5.60
2023-04-27T03:04:40.594Z,5.60
2023-04-27T03:07:17.120Z,5.60
2023-04-27T03:10:03.400Z,5.60
2023-04-27T03:12:46.383Z,5.60
2023-04-27T03:15:19.577Z,5.60
2023-04-27T03:18:15.730Z,5.60
2023-04-27T03:21:14.515Z,5.70
2023-04-27T03:24:11.701Z,5.70
2023-04-27T03:26:46.734Z,5.70
2023-04-27T03:29:32.524Z,5.70
2023-04-27T03:32:20.095Z,5.80
2023-04-27T03:35:03.759Z,5.80
2023-04-27T03:37:46.577Z,5.90
2023-04-27T03:40:31.532Z,5.90
2023-04-27T03:43:05.242Z,6.00
2023-04-27T03:45:48.643Z,6.00
2023-04-27T03:48:41.737Z,6.10
2023-04-27T03:51:16.939Z,6.10
2023-04-27T03:54:24.645Z,6.20
2023-04-27T03:57:05.004Z,6.20
2023-04-27T04:00:03.294Z,6.30
2023-04-27T04:02:43.301Z,6.30
2023-04-27T04:05:31.730Z,6.40
2023-04-27T04:08:10.578Z,6.40
2023-04-27T04:11:09.621Z,6.50
2023-04-27T04:14:03.014Z,6.50
2023-04-27T04:16:35.826Z,6.60
2023-04-27T04:19:12.353Z,6.60
2023-04-27T04:21:44.495Z,6.70
2023-04-27T04:24:26.608Z,6.70
2023-04-27T04:27:27.690Z,6.80
2023-04-27T04:30:12.142Z,6.80
2023-04-27T04:32:55.256Z,6.80
2023-04-27T04:35:41.982Z,6.90
2023-04-27T04:38:24.021Z,6.90
2023-04-27T04:41:08.704Z,7.00
2023-04-27T04:43:51.783Z,7.00
2023-04-27T04:46:26.289Z,7.00
2023-04-27T04:49:15.905Z,7.00
2023-04-27T04:52:09.213Z,7.10
2023-04-27T04:54:43.756Z,7.10
2023-04-27T04:57:25.298Z,7.10
2023-04-27T05:00:14.195Z,7.10
2023-04-27T05:02:47.693Z,7.20
2023-04-27T05:05:24.079Z,7.20
2023-04-27T05:07:55.815Z,7.30
2023-04-27T05:10:37.713Z,7.30
2023-04-27T05:13:28.286Z,7.40
2023-04-27T05:16:27.268Z,7.50
2023-04-27T05:18:58.193Z,7.50
2023-04-27T05:21:46.436Z,7.60
2023-04-27T05:24:29.843Z,7.60
2023-04-27T05:27:13.596Z,7.70
2023-04-27T05:30:06.486Z,7.70
2023-04-27T05:33:02.277Z,7.80
2023-04-27T05:35:42.713Z,7.90
2023-04-27T05:38:17.916Z,8.00
2023-04-27T05:41:04.358Z,8.10
2023-04-27T05:43:45.044Z,8.20
2023-04-27T05:46:32.213Z,8.20
2023-04-27T05:49:31.237Z,8.40
2023-04-27T05:52:13.710Z,8.40
2023-04-27T05:54:48.972Z,8.60
2023-04-27T05:57:42.021Z,8.60
2023-04-27T06:00:39.893Z,8.70
2023-04-27T06:03:33.985Z,8.90
2023-04-27T06:06:20.174Z,9.00
2023-04-27T06:09:17.959Z,9.10
2023-04-27T06:12:00.997Z,9.20
2023-04-27T06:14:42.615Z,9.30
2023-04-27T06:17:37.903Z,9.40
2023-04-27T06:20:18.082Z,9.50
2023-04-27T06:23:12.025Z,9.70
2023-04-27T06:26:02.508Z,9.80
2023-04-27T06:28:44.829Z,9.90
2023-04-27T06:31:21.698Z,10.00
2023-04-27T06:33:54.235Z,10.20
2023-04-27T06:36:44.547Z,10.30
2023-04-27T06:39:24.484Z,10.40
2023-04-27T06:42:09.191Z,10.50
2023-04-27T06:44:52.572Z,10.70
2023-04-27T06:47:50.045Z,10.80
2023-04-27T06:50:34.800Z,10.90
2023-04-27T06:53:18.083Z,11.10
2023-04-27T06:56:09.098Z,11.20
2023-04-27T06:58:40.584Z,11.30
2023-04-27T07:01:22.975Z,11.40
2023-04-27T07:04:23.008Z,11.50
2023-04-27T07:06:59.377Z,11.70
2023-04-27T07:09:40.307Z,11.80
2023-04-27T07:12:23.250Z,11.80
2023-04-27T07:14:55.728Z,12.00
2023-04-27T07:17:32.924Z,12.00
2023-04-27T07:20:13.821Z,12.10
2023-04-27T07:22:45.716Z,12.20
2023-04-27T07:25:17.217Z,12.30
2023-04-27T07:28:17.459Z,12.30
2023-04-27T07:31:24.910Z,12.40
2023-04-27T07:34:26.036Z,12.50
2023-04-27T07:37:08.512Z,12.60
2023-04-27T07:39:53.576Z,12.70
2023-04-27T07:42:25.958Z,12.80
2023-04-27T07:45:13.950Z,12.80
2023-04-27T07:48:03.349Z,12.90
2023-04-27T07:50:37.138Z,13.00
2023-04-27T07:53:09.618Z,13.10
2023-04-27T07:55:58.422Z,13.10
2023-04-27T07:58:42.368Z,13.20
2023-04-27T08:01:33.718Z,13.30
2023-04-27T08:04:34.599Z,13.50
2023-04-27T08:07:20.069Z,13.60
2023-04-27T08:10:20.068Z,13.70
2023-04-27T08:13:16.260Z,13.80
2023-04-27T08:16:00.794Z,13.90
2023-04-27T08:19:10.459Z,14.00
2023-04-27T08:21:42.191Z,14.10
2023-04-27T08:24:27.040Z,14.20
2023-04-27T08:27:03.827Z,14.30
2023-04-27T08:30:12.130Z,14.40
2023-04-27T08:32:51.119Z,14.40
2023-04-27T08:35:54.009Z,14.50
2023-04-27T08:38:54.804Z,14.60
2023-04-27T08:41:45.884Z,14.80
2023-04-27T08:44:34.570Z,14.90
2023-04-27T08:47:11.462Z,14.90
2023-04-27T08:49:51.846Z,15.00
2023-04-27T08:52:56.317Z,15.10
2023-04-27T08:55:38.513Z,15.20
2023-04-27T08:58:09.209Z,15.20
2023-04-27T09:00:44.179Z,15.30
2023-04-27T09:03:27.329Z,15.40
2023-04-27T09:06:11.277Z,15.50
2023-04-27T09:09:07.451Z,15.60
2023-04-27T09:12:00.270Z,15.70
2023-04-27T09:15:16.563Z,15.80
2023-04-27T09:17:57.819Z,15.90
2023-04-27T09:20:48.652Z,16.00
2023-04-27T09:23:47.327Z,16.10
2023-04-27T09:26:32.093Z,16.10
2023-04-27T09:29:06.757Z,16.20
2023-04-27T09:31:43.444Z,16.30
2023-04-27T09:34:33.769Z,16.30
2023-04-27T09:37:20.184Z,16.40
2023-04-27T09:40:01.025Z,16.50
2023-04-27T09:42:54.945Z,16.50
2023-04-27T09:46:20.586Z,16.60
2023-04-27T09:48:53.366Z,16.60
2023-04-27T09:51:25.211Z,16.70
2023-04-27T09:54:08.090Z,16.70
2023-04-27T09:56:58.394Z,16.70
2023-04-27T10:00:11.351Z,16.70
2023-04-27T10:03:05.194Z,16.70
2023-04-27T10:06:08.595Z,16.70
2023-04-27T10:08:46.466Z,16.70
2023-04-27T10:11:20.263Z,16.80
2023-04-27T10:13:57.172Z,16.80
2023-04-27T10:16:56.890Z,16.90
2023-04-27T10:19:39.358Z,16.90
2023-04-27T10:22:25.214Z,17.00
2023-04-27T10:25:04.123Z,17.00
2023-04-27T10:27:46.712Z,17.00
2023-04-27T10:30:23.537Z,17.10
2023-04-27T10:33:06.179Z,17.20
2023-04-27T10:35:40.215Z,17.30
2023-04-27T10:38:34.239Z,17.40
2023-04-27T10:41:08.447Z,17.60
2023-04-27T10:43:54.742Z,17.70
2023-04-27T10:46:49.472Z,17.80
2023-04-27T10:49:36.733Z,17.90
2023-04-27T10:52:33.637Z,18.10
2023-04-27T10:55:20.663Z,18.20
2023-04-27T10:58:04.481Z,18.40
2023-04-27T11:00:50.374Z,18.50
2023-04-27T11:03:23.564Z,18.60
2023-04-27T11:06:13.722Z,18.60
2023-04-27T11:09:06.872Z,18.70
2023-04-27T11:12:13.884Z,18.70
2023-04-27T11:14:46.363Z,18.90
2023-04-27T11:17:32.081Z,19.00
2023-04-27T11:20:39.351Z,19.10
2023-04-27T11:23:24.269Z,19.20
2023-04-27T11:25:55.689Z,19.40
2023-04-27T11:28:29.806Z,19.60
2023-04-27T11:31:33.662Z,19.70
2023-04-27T11:34:23.647Z,19.80
2023-04-27T11:39:58.953Z,20.00
2023-04-27T11:42:31.926Z,20.00
2023-04-27T11:45:28.581Z,20.00
2023-04-27T11:48:13.835Z,20.10
2023-04-27T11:50:51.383Z,20.10
2023-04-27T11:53:43.912Z,20.10
2023-04-27T11:56:45.457Z,20.10
2023-04-27T11:59:26.944Z,20.10
2023-04-27T12:02:20.639Z,20.10
2023-04-27T12:05:13.132Z,20.10
2023-04-27T12:07:58.662Z,20.20
2023-04-27T12:10:31.541Z,20.20
2023-04-27T12:13:42.759Z,20.30
2023-04-27T12:16:32.362Z,20.40
2023-04-27T12:19:17.066Z,20.60
2023-04-27T12:22:09.999Z,20.70
2023-04-27T12:25:02.397Z,20.90
2023-04-27T12:27:44.394Z,21.00
2023-04-27T12:30:18.956Z,21.10
2023-04-27T12:33:14.323Z,21.20
2023-04-27T12:35:44.977Z,21.30
2023-04-27T12:38:34.453Z,21.40
2023-04-27T12:41:07.890Z,21.40
2023-04-27T12:43:53.947Z,21.40
2023-04-27T12:47:02.466Z,21.50
2023-04-27T12:49:43.309Z,21.60
2023-04-27T12:52:21.302Z,21.60
2023-04-27T12:55:24.844Z,21.70
2023-04-27T12:58:10.772Z,21.80
2023-04-27T13:00:55.041Z,22.00
2023-04-27T13:03:39.409Z,22.20
2023-04-27T13:06:19.776Z,22.30
2023-04-27T13:08:50.218Z,22.50
2023-04-27T13:11:33.734Z,22.70
2023-04-27T13:14:15.675Z,22.80
2023-04-27T13:16:54.359Z,22.80
2023-04-27T13:19:28.039Z,22.90
2023-04-27T13:22:05.851Z,22.90
2023-04-27T13:24:47.849Z,23.00
2023-04-27T13:27:59.406Z,23.10
2023-04-27T13:30:40.344Z,23.20
2023-04-27T13:33:24.017Z,23.30
2023-04-27T13:36:18.704Z,23.40
2023-04-27T13:39:09.467Z,23.60
2023-04-27T13:41:45.929Z,23.80
2023-04-27T13:44:35.160Z,24.10
2023-04-27T13:47:14.817Z,24.30
2023-04-27T13:49:54.214Z,24.60
2023-04-27T13:52:34.551Z,24.80
2023-04-27T13:55:07.222Z,24.90
2023-04-27T13:57:53.599Z,24.90
2023-04-27T14:00:33.703Z,25.00
2023-04-27T14:03:21.327Z,25.00
2023-04-27T14:06:02.650Z,25.00
2023-04-27T14:09:01.721Z,24.90
2023-04-27T14:12:12.528Z,24.70
2023-04-27T14:14:47.784Z,24.50
2023-04-27T14:17:37.342Z,24.20
2023-04-27T14:20:31.294Z,24.00
2023-04-27T14:23:12.402Z,23.90
2023-04-27T14:25:47.550Z,23.80
2023-04-27T14:28:24.273Z,23.80
2023-04-27T14:30:59.132Z,23.80
2023-04-27T14:33:42.616Z,23.80
2023-04-27T14:36:16.968Z,23.80
2023-04-27T14:39:04.471Z,23.70
2023-04-27T14:41:46.843Z,23.70
2023-04-27T14:44:19.643Z,23.60
2023-04-27T14:47:15.114Z,23.80
2023-04-27T14:50:20.003Z,24.10
2023-04-27T14:53:14.649Z,24.40
2023-04-27T14:55:58.734Z,24.80
2023-04-27T14:58:56.004Z,25.10
2023-04-27T15:01:38.299Z,25.30
2023-04-27T15:04:15.731Z,25.40
2023-04-27T15:06:56.307Z,25.40
2023-04-27T15:09:35.992Z,25.60
2023-04-27T15:12:27.635Z,25.90
2023-04-27T15:15:51.306Z,26.40
2023-04-27T15:18:33.380Z,26.90
2023-04-27T15:21:06.808Z,27.20
2023-04-27T15:23:48.642Z,27.30
2023-04-27T15:26:57.548Z,27.20
2023-04-27T15:29:39.068Z,27.10
2023-04-27T15:32:31.087Z,27.20
2023-04-27T15:35:23.786Z,27.50
2023-04-27T15:37:56.790Z,27.90
2023-04-27T15:40:54.616Z,28.20
2023-04-27T15:43:35.125Z,28.50
2023-04-27T15:46:06.831Z,28.80
2023-04-27T15:49:00.385Z,28.90
2023-04-27T15:51:38.022Z,28.90
2023-04-27T15:54:45.818Z,29.00
2023-04-27T15:57:20.487Z,29.00
2023-04-27T16:00:22.701Z,29.00
2023-04-27T16:03:32.837Z,29.10
2023-04-27T16:06:19.050Z,29.30
2023-04-27T16:08:51.222Z,29.50
2023-04-27T16:11:25.891Z,29.50
2023-04-27T16:14:08.056Z,29.40
2023-04-27T16:16:40.485Z,29.30
2023-04-27T16:19:13.097Z,29.00
2023-04-27T16:21:55.830Z,28.70
2023-04-27T16:24:40.486Z,28.50
2023-04-27T16:27:25.310Z,28.40
2023-04-27T16:30:22.525Z,28.30
2023-04-27T16:33:12.004Z,28.40
2023-04-27T16:35:49.957Z,28.50
2023-04-27T16:38:35.431Z,28.60
2023-04-27T16:41:22.469Z,28.60
2023-04-27T16:44:03.475Z,28.80
2023-04-27T16:46:54.488Z,29.00
2023-04-27T16:49:38.158Z,29.30
2023-04-27T16:52:29.887Z,29.60
2023-04-27T16:55:16.425Z,29.80
2023-04-27T16:57:50.504Z,29.60
2023-04-27T17:00:42.951Z,29.30
2023-04-27T17:03:23.670Z,28.70
2023-04-27T17:06:17.885Z,28.00
2023-04-27T17:09:00.547Z,27.20
2023-04-27T17:11:58.668Z,26.40
2023-04-27T17:14:35.716Z,25.60
2023-04-27T17:17:18.996Z,24.90
2023-04-27T17:20:06.806Z,24.30
2023-04-27T17:22:53.071Z,23.80
2023-04-27T17:25:24.344Z,23.40
2023-04-27T17:28:19.718Z,23.00
2023-04-27T17:31:02.094Z,22.60
2023-04-27T17:33:53.779Z,22.20
2023-04-27T17:36:30.495Z,21.70
2023-04-27T17:39:15.037Z,21.30
2023-04-27T17:41:57.392Z,20.90
2023-04-27T17:44:30.014Z,20.60
2023-04-27T17:47:25.381Z,20.30
2023-04-27T17:50:16.570Z,20.00
2023-04-27T17:52:55.213Z,19.60
2023-04-27T17:55:37.323Z,19.40
2023-04-27T17:58:22.104Z,19.20
2023-04-27T18:00:55.078Z,18.90
2023-04-27T18:03:29.262Z,18.70
2023-04-27T18:06:27.554Z,18.50
2023-04-27T18:09:18.023Z,18.30
2023-04-27T18:12:14.585Z,18.00
2023-04-27T18:14:54.423Z,17.70
2023-04-27T18:17:43.002Z,17.50
2023-04-27T18:20:45.340Z,17.20
2023-04-27T18:23:19.891Z,17.00
2023-04-27T18:26:17.051Z,16.80
2023-04-27T18:28:49.009Z,16.60
2023-04-27T18:31:42.157Z,16.40
2023-04-27T18:34:37.494Z,16.30
2023-04-27T18:37:08.592Z,16.10
2023-04-27T18:39:50.392Z,15.90
2023-04-27T18:42:24.515Z,15.70
2023-04-27T18:45:00.756Z,15.60
2023-04-27T18:47:49.247Z,15.40
2023-04-27T18:50:35.612Z,15.20
2023-04-27T18:53:21.772Z,15.10
2023-04-27T18:55:52.138Z,15.00
2023-04-27T18:58:26.531Z,14.90
2023-04-27T19:01:04.886Z,14.70
2023-04-27T19:03:45.402Z,14.60
2023-04-27T19:06:28.865Z,14.50
2023-04-27T19:09:01.722Z,14.40
2023-04-27T19:11:49.374Z,14.30
2023-04-27T19:14:37.582Z,14.30
2023-04-27T19:17:34.593Z,14.20
2023-04-27T19:20:22.509Z,14.20
2023-04-27T19:23:00.312Z,14.10
2023-04-27T19:25:49.680Z,14.10
2023-04-27T19:28:23.729Z,14.00
2023-04-27T19:31:06.247Z,14.00
2023-04-27T19:33:37.931Z,13.90
2023-04-27T19:36:34.811Z,13.80
2023-04-27T19:39:16.846Z,13.80
2023-04-27T19:42:08.266Z,13.70
2023-04-27T19:44:43.766Z,13.70
2023-04-27T19:47:30.937Z,13.60
2023-04-27T19:50:06.259Z,13.60
2023-04-27T19:52:36.819Z,13.50
2023-04-27T19:55:29.111Z,13.60
2023-04-27T19:58:18.713Z,13.50
2023-04-27T20:01:06.786Z,13.50
2023-04-27T20:03:59.983Z,13.50
2023-04-27T20:06:41.392Z,13.40
2023-04-27T20:09:29.305Z,13.50
2023-04-27T20:12:51.635Z,13.40
2023-04-27T20:15:31.505Z,13.40
2023-04-27T20:18:15.385Z,13.40
2023-04-27T20:20:53.539Z,13.40
2023-04-27T20:23:29.609Z,13.30
2023-04-27T20:26:07.542Z,13.30
2023-04-27T20:28:52.525Z,13.30
2023-04-27T20:31:42.834Z,13.30
2023-04-27T20:34:32.794Z,13.30
2023-04-27T20:37:04.726Z,13.30
2023-04-27T20:39:48.197Z,13.30
2023-04-27T20:42:41.945Z,13.30
2023-04-27T20:45:53.456Z,13.30
2023-04-27T20:49:01.228Z,13.30
2023-04-27T20:51:40.893Z,13.20
2023-04-27T20:54:13.767Z,13.20
2023-04-27T20:56:54.681Z,13.10
2023-04-27T20:59:29.587Z,13.10
2023-04-27T21:02:22.306Z,13.10
2023-04-27T21:05:06.784Z,13.00
2023-04-27T21:07:41.619Z,13.00
2023-04-27T21:10:24.326Z,13.00
2023-04-27T21:13:06.835Z,12.90
2023-04-27T21:15:39.229Z,12.90
2023-04-27T21:18:50.287Z,12.90
2023-04-27T21:21:33.683Z,12.90
2023-04-27T21:24:26.893Z,12.90
2023-04-27T21:27:08.486Z,12.90
2023-04-27T21:29:50.997Z,12.90
2023-04-27T21:32:40.723Z,12.80
2023-04-27T21:35:16.544Z,12.80
2023-04-27T21:38:09.443Z,12.80
2023-04-27T21:40:42.925Z,12.80
2023-04-27T21:43:19.279Z,12.70
2023-04-27T21:45:53.786Z,12.70
2023-04-27T21:48:34.268Z,12.80
2023-04-27T21:51:35.192Z,12.80
2023-04-27T21:54:15.433Z,12.80
2023-04-27T21:56:46.601Z,12.80
2023-04-27T21:59:20.563Z,12.90
2023-04-27T22:01:56.629Z,12.90
2023-04-27T22:04:45.653Z,12.90
2023-04-27T22:07:21.326Z,12.90
2023-04-27T22:09:58.136Z,13.00
2023-04-27T22:12:30.406Z,13.00
2023-04-27T22:15:27.572Z,13.00
2023-04-27T22:18:07.017Z,13.00
2023-04-27T22:20:39.309Z,13.00
2023-04-27T22:23:33.950Z,13.00
2023-04-27T22:26:13.979Z,13.00
2023-04-27T22:28:45.586Z,12.90
2023-04-27T22:31:39.650Z,12.90
2023-04-27T22:34:15.785Z,12.90
2023-04-27T22:37:02.430Z,13.00
2023-04-27T22:39:45.715Z,12.90
2023-04-27T22:42:27.827Z,13.00
2023-04-27T22:45:17.564Z,13.00
2023-04-27T22:48:05.164Z,13.00
2023-04-27T22:50:36.156Z,13.00
2023-04-27T22:53:36.280Z,13.10
2023-04-27T22:56:50.512Z,13.10
2023-04-27T22:59:23.442Z,13.10
2023-04-27T23:02:06.772Z,13.00
2023-04-27T23:04:43.090Z,13.00
2023-04-27T23:07:13.794Z,13.00
2023-04-27T23:09:46.161Z,13.00
2023-04-27T23:12:32.438Z,13.00
2023-04-27T23:15:04.831Z,13.00
2023-04-27T23:17:39.481Z,13.00
2023-04-27T23:23:06.375Z,13.00
2023-04-27T23:25:45.109Z,13.00
2023-04-27T23:28:36.169Z,13.00
2023-04-27T23:31:08.097Z,13.00
2023-04-27T23:33:58.416Z,13.00
2023-04-27T23:36:39.922Z,13.00
2023-04-27T23:39:23.321Z,13.00
2023-04-27T23:41:55.488Z,13.00
2023-04-27T23:44:49.225Z,13.00
2023-04-27T23:47:33.612Z,13.00
2023-04-27T23:50:19.281Z,13.00
2023-04-27T23:52:59.160Z,13.00
2023-04-27T23:55:41.091Z,12.90
2023-04-27T23:58:25.296Z,12.90
